CheckWX is a tool to help pilots better visualize weather data.  It is not intended as a substitute for an official pre-flight weather briefing.

07:24:39 UTC

LSZG TAF
Grenchen Airport
Switzerland
TAF LSZG 190525Z 1906/1915 23005KT CAVOK BECMG 1910/1913 9999 FEW050 TEMPO 1912/1915 9999 SCT050TCU

Jun-19@
06:00 UTC

Jun-19 @ 06:00 UTC

Jun-19@
10:00 UTC

Jun-19 @ 10:00 UTC

TAF LSZG 190525Z 1906/1915 23005KT CAVOK
Wind
  • 230° at 5 KTS
Conditions
No significant weather
Cloud Levels
  • No significant clouds

Jun-19@
10:00 UTC

Jun-19 @ 10:00 UTC

Jun-19@
15:00 UTC

Jun-19 @ 15:00 UTC

BECMG 1910/1913 9999 FEW050

Becoming

Becoming Conditions expected by Wed, Jun 19, 2019 @ 13:00 UTC

Wind
  • 230° at 5 KTS
Conditions
No significant weather
Cloud Levels
  • Few at 5,000' AGL

Jun-19@
12:00 UTC

Jun-19 @ 12:00 UTC

Jun-19@
15:00 UTC

Jun-19 @ 15:00 UTC

TEMPO 1912/1915 9999 SCT050TCU

Temporary

Temporary Changes expected for less than half the time period

Cloud Levels
  • Scattered at 5,000' AGL